createdAt,value
2023-02-11T00:01:22.301Z,47.07
2023-02-11T00:03:50.336Z,50.57
2023-02-11T00:06:18.795Z,48.70
2023-02-11T00:08:47.319Z,48.40
2023-02-11T00:11:16.919Z,53.50
2023-02-11T00:13:45.959Z,53.53
2023-02-11T00:16:20.000Z,53.67
2023-02-11T00:18:48.985Z,52.30
2023-02-11T00:21:19.601Z,52.63
2023-02-11T00:23:48.241Z,53.10
2023-02-11T00:26:18.232Z,49.73
2023-02-11T00:28:46.426Z,55.37
2023-02-11T00:31:16.697Z,51.97
2023-02-11T00:33:45.309Z,53.00
2023-02-11T00:36:17.638Z,54.67
2023-02-11T00:38:46.563Z,52.20
2023-02-11T00:41:15.557Z,51.87
2023-02-11T00:43:44.166Z,58.00
2023-02-11T00:46:13.010Z,51.80
2023-02-11T00:48:42.744Z,52.03
2023-02-11T00:51:11.206Z,56.57
2023-02-11T00:53:39.478Z,53.63
2023-02-11T00:56:08.368Z,53.23
2023-02-11T00:58:39.587Z,53.47
2023-02-11T01:01:07.814Z,58.27
2023-02-11T01:03:36.078Z,56.73
2023-02-11T01:06:06.014Z,54.50
2023-02-11T01:08:33.988Z,55.47
2023-02-11T01:11:04.591Z,60.87
2023-02-11T01:13:35.220Z,59.90
2023-02-11T01:16:03.271Z,57.97
2023-02-11T01:18:31.336Z,57.47
2023-02-11T01:20:59.653Z,55.53
2023-02-11T01:23:29.037Z,57.73
2023-02-11T01:25:57.697Z,58.77
2023-02-11T01:28:27.843Z,53.77
2023-02-11T01:30:56.448Z,60.10
2023-02-11T01:33:24.952Z,57.83
2023-02-11T01:35:53.468Z,60.37
2023-02-11T01:38:24.599Z,58.50
2023-02-11T01:40:56.182Z,63.50
2023-02-11T01:43:25.335Z,58.87
2023-02-11T01:46:14.526Z,62.73
2023-02-11T01:48:45.809Z,65.37
2023-02-11T01:51:19.418Z,64.77
2023-02-11T01:54:10.789Z,62.30
2023-02-11T01:57:01.911Z,68.17
2023-02-11T01:59:34.593Z,72.50
2023-02-11T02:02:11.119Z,74.37
2023-02-11T02:04:45.425Z,73.70
2023-02-11T02:07:18.137Z,68.00
2023-02-11T02:09:50.502Z,66.90
2023-02-11T02:12:19.894Z,67.87
2023-02-11T02:14:47.885Z,64.90
2023-02-11T02:17:30.102Z,65.50
2023-02-11T02:20:25.759Z,67.33
2023-02-11T02:23:36.484Z,61.13
2023-02-11T02:26:20.890Z,63.90
2023-02-11T02:29:19.600Z,58.23
2023-02-11T02:32:03.461Z,60.47
2023-02-11T02:34:43.116Z,58.10
2023-02-11T02:37:19.208Z,58.50
2023-02-11T02:39:50.272Z,57.77
2023-02-11T02:42:20.734Z,57.10
2023-02-11T02:44:50.719Z,59.47
2023-02-11T02:47:18.932Z,56.93
2023-02-11T02:49:48.238Z,55.87
2023-02-11T02:52:28.806Z,60.63
2023-02-11T02:55:24.005Z,60.50
2023-02-11T02:58:11.284Z,60.10
2023-02-11T03:00:49.526Z,59.20
2023-02-11T03:03:24.690Z,60.83
2023-02-11T03:06:01.569Z,61.80
2023-02-11T03:08:33.520Z,58.37
2023-02-11T03:11:04.393Z,52.47
2023-02-11T03:13:34.987Z,56.67
2023-02-11T03:16:09.263Z,57.13
2023-02-11T03:18:40.818Z,55.57
2023-02-11T03:21:12.045Z,51.67
2023-02-11T03:23:43.055Z,58.07
2023-02-11T03:26:17.561Z,56.03
2023-02-11T03:28:52.366Z,53.93
2023-02-11T03:31:27.133Z,52.50
2023-02-11T03:34:02.279Z,56.87
2023-02-11T03:36:36.755Z,54.07
2023-02-11T03:39:06.811Z,55.97
2023-02-11T03:41:36.572Z,55.97
2023-02-11T03:44:07.176Z,55.47
2023-02-11T03:46:42.246Z,52.90
2023-02-11T03:49:13.075Z,51.60
2023-02-11T03:51:42.731Z,53.80
2023-02-11T03:54:17.263Z,53.73
2023-02-11T03:56:50.794Z,55.60
2023-02-11T03:59:18.992Z,51.00
2023-02-11T04:01:47.122Z,52.27
2023-02-11T04:04:15.380Z,48.80
2023-02-11T04:06:44.744Z,51.67
2023-02-11T04:09:13.122Z,49.70
2023-02-11T04:11:41.095Z,49.20
2023-02-11T04:14:09.051Z,48.67
2023-02-11T04:16:37.129Z,55.47
2023-02-11T04:19:05.305Z,48.63
2023-02-11T04:21:33.349Z,51.50
2023-02-11T04:24:05.135Z,44.63
2023-02-11T04:26:33.109Z,50.63
2023-02-11T04:29:01.100Z,47.43
2023-02-11T04:31:29.155Z,50.00
2023-02-11T04:33:58.087Z,51.97
2023-02-11T04:36:26.064Z,49.90
2023-02-11T04:38:54.011Z,49.23
2023-02-11T04:41:23.399Z,52.27
2023-02-11T04:43:51.405Z,49.43
2023-02-11T04:46:19.732Z,49.53
2023-02-11T04:48:47.734Z,54.30
2023-02-11T04:51:15.771Z,50.67
2023-02-11T04:53:43.958Z,51.73
2023-02-11T04:56:11.923Z,52.17
2023-02-11T04:58:41.488Z,48.63
2023-02-11T05:01:10.447Z,49.57
2023-02-11T05:03:38.771Z,51.83
2023-02-11T05:06:07.703Z,49.57
2023-02-11T05:08:35.667Z,48.87
2023-02-11T05:11:03.666Z,49.57
2023-02-11T05:13:32.199Z,50.47
2023-02-11T05:16:01.551Z,48.23
2023-02-11T05:18:29.575Z,45.13
2023-02-11T05:20:57.667Z,52.13
2023-02-11T05:23:25.640Z,46.30
2023-02-11T05:25:53.708Z,44.07
2023-02-11T05:28:21.698Z,41.97
2023-02-11T05:30:49.905Z,44.23
2023-02-11T05:33:19.306Z,42.53
2023-02-11T05:35:47.329Z,41.53
2023-02-11T05:38:15.391Z,43.07
2023-02-11T05:40:43.469Z,40.63
2023-02-11T05:43:11.462Z,42.63
2023-02-11T05:45:39.453Z,41.07
2023-02-11T05:48:07.463Z,42.87
2023-02-11T05:50:36.795Z,39.93
2023-02-11T05:53:05.584Z,41.83
2023-02-11T05:55:33.802Z,44.27
2023-02-11T05:58:02.848Z,40.27
2023-02-11T06:00:30.832Z,40.50
2023-02-11T06:02:58.945Z,38.40
2023-02-11T06:05:27.450Z,40.90
2023-02-11T06:07:56.782Z,40.47
2023-02-11T06:10:24.731Z,40.27
2023-02-11T06:12:52.781Z,39.43
2023-02-11T06:15:23.502Z,40.27
2023-02-11T06:17:51.550Z,43.50
2023-02-11T06:20:19.623Z,38.07
2023-02-11T06:22:47.733Z,36.23
2023-02-11T06:25:17.078Z,32.83
2023-02-11T06:27:45.117Z,31.43
2023-02-11T06:30:14.014Z,33.03
2023-02-11T06:32:44.929Z,34.80
2023-02-11T06:35:14.064Z,37.53
2023-02-11T06:37:42.831Z,37.87
2023-02-11T06:40:11.196Z,36.07
2023-02-11T06:42:40.888Z,40.30
2023-02-11T06:45:13.272Z,41.40
2023-02-11T06:47:42.027Z,37.83
2023-02-11T06:50:13.507Z,38.87
2023-02-11T06:52:41.846Z,36.57
2023-02-11T06:55:10.094Z,37.73
2023-02-11T06:57:38.075Z,35.50
2023-02-11T07:00:08.975Z,31.27
2023-02-11T07:02:37.460Z,30.93
2023-02-11T07:05:07.038Z,28.53
2023-02-11T07:07:35.441Z,25.57
2023-02-11T07:10:04.155Z,25.97
2023-02-11T07:12:33.625Z,25.87
2023-02-11T07:15:01.767Z,23.87
2023-02-11T07:17:31.141Z,24.43
2023-02-11T07:19:59.128Z,25.17
2023-02-11T07:22:27.110Z,25.10
2023-02-11T07:24:55.131Z,23.83
2023-02-11T07:27:23.119Z,26.33
2023-02-11T07:29:51.086Z,29.43
2023-02-11T07:32:19.096Z,26.53
2023-02-11T07:34:49.495Z,26.53
2023-02-11T07:37:17.599Z,24.80
2023-02-11T07:39:45.629Z,23.57
2023-02-11T07:42:15.761Z,25.50
2023-02-11T07:44:43.847Z,23.90
2023-02-11T07:47:13.939Z,25.93
2023-02-11T07:49:43.428Z,24.87
2023-02-11T07:52:12.821Z,23.33
2023-02-11T07:54:40.875Z,25.70
2023-02-11T07:57:08.890Z,24.73
2023-02-11T07:59:36.864Z,25.67
2023-02-11T08:02:05.017Z,21.13
2023-02-11T08:04:33.075Z,24.37
2023-02-11T08:07:01.028Z,22.83
2023-02-11T08:09:32.771Z,21.50
2023-02-11T08:12:02.454Z,25.33
2023-02-11T08:14:32.677Z,24.17
2023-02-11T08:17:00.692Z,21.30
2023-02-11T08:19:28.673Z,22.80
2023-02-11T08:21:57.414Z,23.13
2023-02-11T08:24:25.478Z,22.23
2023-02-11T08:26:54.877Z,23.60
2023-02-11T08:29:22.853Z,23.10
2023-02-11T08:31:50.836Z,23.70
2023-02-11T08:34:19.539Z,22.90
2023-02-11T08:36:49.168Z,22.83
2023-02-11T08:39:20.297Z,22.37
2023-02-11T08:41:49.785Z,19.83
2023-02-11T08:44:19.412Z,22.40
2023-02-11T08:46:47.762Z,21.73
2023-02-11T08:49:18.949Z,20.77
2023-02-11T08:51:47.427Z,22.80
2023-02-11T08:54:17.875Z,23.63
2023-02-11T08:56:46.826Z,21.40
2023-02-11T08:59:20.197Z,22.60
2023-02-11T09:01:48.323Z,21.27
2023-02-11T09:04:16.846Z,24.13
2023-02-11T09:06:44.878Z,22.30
2023-02-11T09:09:14.779Z,22.40
2023-02-11T09:11:44.496Z,22.87
2023-02-11T09:14:18.363Z,21.60
2023-02-11T09:16:48.634Z,22.73
2023-02-11T09:19:17.152Z,22.30
2023-02-11T09:21:45.224Z,24.33
2023-02-11T09:24:13.381Z,22.30
2023-02-11T09:26:43.399Z,25.00
2023-02-11T09:29:11.410Z,24.40
2023-02-11T09:31:39.726Z,23.23
2023-02-11T09:34:09.537Z,22.73
2023-02-11T09:36:41.513Z,23.30
2023-02-11T09:39:17.054Z,23.47
2023-02-11T09:42:08.979Z,23.37
2023-02-11T09:44:38.985Z,21.27
2023-02-11T09:47:14.551Z,28.30
2023-02-11T09:49:48.013Z,24.50
2023-02-11T09:52:26.120Z,26.03
2023-02-11T09:54:57.499Z,25.40
2023-02-11T09:57:32.613Z,23.00
2023-02-11T10:00:01.566Z,27.47
2023-02-11T10:02:39.849Z,24.67
2023-02-11T10:05:31.203Z,23.97
2023-02-11T10:08:09.904Z,23.20
2023-02-11T10:10:48.736Z,24.23
2023-02-11T10:13:31.941Z,25.77
2023-02-11T10:16:10.519Z,29.33
2023-02-11T10:19:00.283Z,25.07
2023-02-11T10:21:40.530Z,26.70
2023-02-11T10:24:15.515Z,23.73
2023-02-11T10:26:45.316Z,25.40
2023-02-11T10:29:22.351Z,25.63
2023-02-11T10:31:51.787Z,28.20
2023-02-11T10:34:19.786Z,26.40
2023-02-11T10:36:49.149Z,26.97
2023-02-11T10:39:21.772Z,27.73
2023-02-11T10:41:54.664Z,27.07
2023-02-11T10:44:27.191Z,27.13
2023-02-11T10:46:56.664Z,28.23
2023-02-11T10:49:37.360Z,28.10
2023-02-11T10:52:20.708Z,24.63
2023-02-11T10:55:04.062Z,28.27
2023-02-11T10:57:35.996Z,26.57
2023-02-11T11:00:09.751Z,29.63
2023-02-11T11:02:44.019Z,27.13
2023-02-11T11:05:19.219Z,30.03
2023-02-11T11:07:57.167Z,28.03
2023-02-11T11:10:31.654Z,25.97
2023-02-11T11:12:59.661Z,26.20
2023-02-11T11:15:29.572Z,29.93
2023-02-11T11:18:22.537Z,28.93
2023-02-11T11:20:59.782Z,29.30
2023-02-11T11:23:30.104Z,29.83
2023-02-11T11:26:05.396Z,29.03
2023-02-11T11:28:39.647Z,28.07
2023-02-11T11:31:14.847Z,26.20
2023-02-11T11:33:45.920Z,28.23
2023-02-11T11:36:16.754Z,28.37
2023-02-11T11:38:51.279Z,30.90
2023-02-11T11:41:26.025Z,27.37
2023-02-11T11:44:02.906Z,25.93
2023-02-11T11:46:33.993Z,28.17
2023-02-11T11:49:17.580Z,31.47
2023-02-11T11:51:52.302Z,28.57
2023-02-11T11:54:22.873Z,26.00
2023-02-11T11:56:56.803Z,28.97
2023-02-11T11:59:24.787Z,27.60
2023-02-11T12:02:21.294Z,26.97
2023-02-11T12:05:02.691Z,28.80
2023-02-11T12:07:41.965Z,29.30
2023-02-11T12:10:37.092Z,28.63
2023-02-11T12:13:18.322Z,28.43
2023-02-11T12:15:58.354Z,28.53
2023-02-11T12:18:44.921Z,33.13
2023-02-11T12:21:26.047Z,33.47
2023-02-11T12:24:07.229Z,30.03
2023-02-11T12:26:45.477Z,30.90
2023-02-11T12:29:25.475Z,31.23
2023-02-11T12:32:10.557Z,28.23
2023-02-11T12:34:52.603Z,32.33
2023-02-11T12:37:32.426Z,27.73
2023-02-11T12:40:11.073Z,30.20
2023-02-11T12:43:09.835Z,32.40
2023-02-11T12:45:55.467Z,27.07
2023-02-11T12:48:40.802Z,32.13
2023-02-11T12:51:16.162Z,29.83
2023-02-11T12:54:08.048Z,29.37
2023-02-11T12:56:41.479Z,28.37
2023-02-11T12:59:21.734Z,31.50
2023-02-11T13:01:53.123Z,32.30
2023-02-11T13:04:27.923Z,30.30
2023-02-11T13:07:02.200Z,33.20
2023-02-11T13:09:36.872Z,30.43
2023-02-11T13:12:28.656Z,31.67
2023-02-11T13:15:01.760Z,30.57
2023-02-11T13:17:37.867Z,33.17
2023-02-11T13:20:18.392Z,32.73
2023-02-11T13:22:57.129Z,31.07
2023-02-11T13:25:34.216Z,29.60
2023-02-11T13:28:16.440Z,34.63
2023-02-11T13:30:51.972Z,35.07
2023-02-11T13:33:33.753Z,30.33
2023-02-11T13:36:22.948Z,34.00
2023-02-11T13:38:58.792Z,34.33
2023-02-11T13:41:39.771Z,33.00
2023-02-11T13:44:28.450Z,33.07
2023-02-11T13:47:04.598Z,35.00
2023-02-11T13:49:41.494Z,33.20
2023-02-11T13:52:22.944Z,34.00
2023-02-11T13:54:53.566Z,33.27
2023-02-11T13:57:39.378Z,35.23
2023-02-11T14:00:47.322Z,31.40
2023-02-11T14:03:54.851Z,31.73
2023-02-11T14:06:45.339Z,32.47
2023-02-11T14:09:37.385Z,31.70
2023-02-11T14:12:32.776Z,31.57
2023-02-11T14:15:19.802Z,33.10
2023-02-11T14:17:47.994Z,35.83
2023-02-11T14:20:37.582Z,37.50
2023-02-11T14:23:07.223Z,36.07
2023-02-11T14:25:35.595Z,33.07
2023-02-11T14:28:12.525Z,43.03
2023-02-11T14:30:58.083Z,38.60
2023-02-11T14:33:59.918Z,37.13
2023-02-11T14:36:51.838Z,39.93
2023-02-11T14:39:28.851Z,43.53
2023-02-11T14:41:59.034Z,48.43
2023-02-11T14:44:31.032Z,45.00
2023-02-11T14:46:59.687Z,46.40
2023-02-11T14:49:30.606Z,47.77
2023-02-11T14:52:05.079Z,43.30
2023-02-11T14:54:34.851Z,43.50
2023-02-11T14:57:12.879Z,44.33
2023-02-11T14:59:41.405Z,46.20
2023-02-11T15:02:22.942Z,44.90
2023-02-11T15:04:51.149Z,39.00
2023-02-11T15:07:20.558Z,39.57
2023-02-11T15:09:52.425Z,47.33
2023-02-11T15:12:23.694Z,40.83
2023-02-11T15:14:55.104Z,42.93
2023-02-11T15:17:26.192Z,39.47
2023-02-11T15:19:57.829Z,39.60
2023-02-11T15:22:30.184Z,42.53
2023-02-11T15:25:03.831Z,43.83
2023-02-11T15:27:40.723Z,40.43
2023-02-11T15:30:30.464Z,41.00
2023-02-11T15:33:00.322Z,42.53
2023-02-11T15:35:31.109Z,51.17
2023-02-11T15:38:01.529Z,41.97
2023-02-11T15:40:32.447Z,42.37
2023-02-11T15:43:05.512Z,42.63
2023-02-11T15:45:35.073Z,43.77
2023-02-11T15:48:13.795Z,42.23
2023-02-11T15:50:43.871Z,43.43
2023-02-11T15:53:26.378Z,44.13
2023-02-11T15:56:00.180Z,47.80
2023-02-11T15:58:28.467Z,47.43
2023-02-11T16:00:59.892Z,46.73
2023-02-11T16:03:32.521Z,49.83
2023-02-11T16:06:19.651Z,47.00
2023-02-11T16:09:07.018Z,51.33
2023-02-11T16:11:54.978Z,54.50
2023-02-11T16:14:29.391Z,50.20
2023-02-11T16:16:59.746Z,49.93
2023-02-11T16:19:28.656Z,50.90
2023-02-11T16:21:59.231Z,49.57
2023-02-11T16:24:30.621Z,50.63
2023-02-11T16:27:01.391Z,51.07
2023-02-11T16:29:30.982Z,52.77
2023-02-11T16:32:09.299Z,56.73
2023-02-11T16:34:38.051Z,54.43
2023-02-11T16:37:08.903Z,55.40
2023-02-11T16:39:38.291Z,55.97
2023-02-11T16:42:07.724Z,55.83
2023-02-11T16:44:36.647Z,55.57
2023-02-11T16:47:07.723Z,58.10
2023-02-11T16:49:38.201Z,56.10
2023-02-11T16:52:09.033Z,53.43
2023-02-11T16:54:38.391Z,58.07
2023-02-11T16:57:16.509Z,58.30
2023-02-11T16:59:46.043Z,59.00
2023-02-11T17:02:19.210Z,59.57
2023-02-11T17:04:47.422Z,61.60
2023-02-11T17:07:15.443Z,63.47
2023-02-11T17:09:45.031Z,57.53
2023-02-11T17:12:13.247Z,58.70
2023-02-11T17:14:41.237Z,63.10
2023-02-11T17:17:10.207Z,60.97
2023-02-11T17:19:38.649Z,63.00
2023-02-11T17:22:07.002Z,59.07
2023-02-11T17:24:35.185Z,59.13
2023-02-11T17:27:04.782Z,58.33
2023-02-11T17:29:32.956Z,59.13
2023-02-11T17:32:00.961Z,61.40
2023-02-11T17:34:29.458Z,61.00
2023-02-11T17:36:57.915Z,63.83
2023-02-11T17:39:26.166Z,67.30
2023-02-11T17:41:54.214Z,63.57
2023-02-11T17:44:23.615Z,64.63
2023-02-11T17:46:51.585Z,62.63
2023-02-11T17:49:20.090Z,68.43
2023-02-11T17:51:48.172Z,66.77
2023-02-11T17:54:22.471Z,65.67
2023-02-11T17:56:50.850Z,63.07
2023-02-11T17:59:19.041Z,67.07
2023-02-11T18:01:48.871Z,66.03
2023-02-11T18:04:19.518Z,64.67
2023-02-11T18:06:47.622Z,66.07
2023-02-11T18:09:15.702Z,62.57
2023-02-11T18:11:43.729Z,60.27
2023-02-11T18:14:12.440Z,60.17
2023-02-11T18:16:43.561Z,58.47
2023-02-11T18:19:14.089Z,63.33
2023-02-11T18:21:42.423Z,57.57
2023-02-11T18:24:10.747Z,53.67
2023-02-11T18:26:38.737Z,59.60
2023-02-11T18:29:07.284Z,60.53
2023-02-11T18:31:39.372Z,63.00
2023-02-11T18:34:10.612Z,66.27
2023-02-11T18:36:42.312Z,65.10
2023-02-11T18:39:10.312Z,66.73
2023-02-11T18:41:40.037Z,62.93
2023-02-11T18:44:08.077Z,65.83
2023-02-11T18:46:38.987Z,67.13
2023-02-11T18:49:07.395Z,71.10
2023-02-11T18:51:35.415Z,75.07
2023-02-11T18:54:04.857Z,68.17
2023-02-11T18:56:33.245Z,66.63
2023-02-11T18:59:02.452Z,70.03
2023-02-11T19:01:31.581Z,67.73
2023-02-11T19:04:02.812Z,69.13
2023-02-11T19:06:34.268Z,68.37
2023-02-11T19:09:06.082Z,71.03
2023-02-11T19:11:54.166Z,70.23
2023-02-11T19:14:24.405Z,72.67
2023-02-11T19:16:57.849Z,69.23
2023-02-11T19:19:28.950Z,73.33
2023-02-11T19:21:58.268Z,70.13
2023-02-11T19:24:28.936Z,72.53
2023-02-11T19:26:58.988Z,75.10
2023-02-11T19:29:27.146Z,78.07
2023-02-11T19:31:55.448Z,78.17
2023-02-11T19:34:23.761Z,76.53
2023-02-11T19:36:52.747Z,76.90
2023-02-11T19:39:21.381Z,86.93
2023-02-11T19:41:51.561Z,80.57
2023-02-11T19:44:19.686Z,80.03
2023-02-11T19:46:48.761Z,79.00
2023-02-11T19:49:22.792Z,76.33
2023-02-11T19:51:51.072Z,80.30
2023-02-11T19:54:20.188Z,77.77
2023-02-11T19:56:49.067Z,75.70
2023-02-11T19:59:19.468Z,73.60
2023-02-11T20:01:49.031Z,79.07
2023-02-11T20:04:20.061Z,82.83
2023-02-11T20:06:49.422Z,77.20
2023-02-11T20:09:21.721Z,79.30
2023-02-11T20:11:50.305Z,83.20
2023-02-11T20:14:26.162Z,79.50
2023-02-11T20:16:55.515Z,82.70
2023-02-11T20:19:23.986Z,82.03
2023-02-11T20:21:55.415Z,84.33
2023-02-11T20:24:25.662Z,82.67
2023-02-11T20:26:55.890Z,82.83
2023-02-11T20:29:26.438Z,84.27
2023-02-11T20:31:56.483Z,84.93
2023-02-11T20:34:25.272Z,81.53
2023-02-11T20:36:55.051Z,84.97
2023-02-11T20:39:24.338Z,82.93
2023-02-11T20:41:53.655Z,94.77
2023-02-11T20:44:22.831Z,92.10
2023-02-11T20:46:54.009Z,94.83
2023-02-11T20:49:24.762Z,89.63
2023-02-11T20:51:54.490Z,94.37
2023-02-11T20:54:23.665Z,96.57
2023-02-11T20:56:53.555Z,93.87
2023-02-11T20:59:22.525Z,99.93
2023-02-11T21:01:55.354Z,95.70
2023-02-11T21:04:26.316Z,91.40
2023-02-11T21:06:59.640Z,91.37
2023-02-11T21:09:33.370Z,93.70
2023-02-11T21:12:02.230Z,88.67
2023-02-11T21:14:30.475Z,91.97
2023-02-11T21:16:59.941Z,86.77
2023-02-11T21:19:28.180Z,89.60
2023-02-11T21:22:00.649Z,87.73
2023-02-11T21:24:30.733Z,83.97
2023-02-11T21:26:58.899Z,90.03
2023-02-11T21:29:26.863Z,86.20
2023-02-11T21:31:57.954Z,90.03
2023-02-11T21:34:27.319Z,89.93
2023-02-11T21:36:55.288Z,87.87
2023-02-11T21:39:23.284Z,81.43
2023-02-11T21:41:51.585Z,87.70
2023-02-11T21:44:19.921Z,88.60
2023-02-11T21:46:48.141Z,86.37
2023-02-11T21:49:16.132Z,80.67
2023-02-11T21:51:45.900Z,87.20
2023-02-11T21:54:13.887Z,89.20
2023-02-11T21:56:43.213Z,86.00
2023-02-11T21:59:14.121Z,87.57
2023-02-11T22:01:42.305Z,87.50
2023-02-11T22:04:11.002Z,95.77
2023-02-11T22:06:39.283Z,93.57
2023-02-11T22:09:10.755Z,100.43
2023-02-11T22:11:38.999Z,105.00
2023-02-11T22:14:07.133Z,105.70
2023-02-11T22:16:35.324Z,99.57
2023-02-11T22:19:03.400Z,98.63
2023-02-11T22:21:32.033Z,106.30
2023-02-11T22:24:00.066Z,103.47
2023-02-11T22:26:29.678Z,108.87
2023-02-11T22:28:57.773Z,105.57
2023-02-11T22:31:28.803Z,105.93
2023-02-11T22:34:00.515Z,106.80
2023-02-11T22:36:30.195Z,110.93
2023-02-11T22:39:01.593Z,101.60
2023-02-11T22:41:30.959Z,103.57
2023-02-11T22:43:59.388Z,107.07
2023-02-11T22:46:27.873Z,105.33
2023-02-11T22:48:57.817Z,105.57
2023-02-11T22:51:29.146Z,102.00
2023-02-11T22:53:59.344Z,100.77
2023-02-11T22:56:28.251Z,101.23
2023-02-11T22:59:01.752Z,97.27
2023-02-11T23:01:30.981Z,92.90
2023-02-11T23:04:01.004Z,99.23
2023-02-11T23:06:29.000Z,95.20
2023-02-11T23:08:58.700Z,95.37
2023-02-11T23:11:28.652Z,99.80
2023-02-11T23:13:57.632Z,102.83
2023-02-11T23:16:29.351Z,92.20
2023-02-11T23:18:59.728Z,89.97
2023-02-11T23:21:29.815Z,90.07
2023-02-11T23:23:59.208Z,92.07
2023-02-11T23:26:27.468Z,88.03
2023-02-11T23:28:56.228Z,90.13
2023-02-11T23:31:28.011Z,85.83
2023-02-11T23:33:56.166Z,97.67
2023-02-11T23:36:24.704Z,93.60
2023-02-11T23:38:52.735Z,99.80
2023-02-11T23:41:21.804Z,98.33
2023-02-11T23:43:56.600Z,100.50
2023-02-11T23:46:27.701Z,104.73
2023-02-11T23:48:56.132Z,104.93
2023-02-11T23:51:24.585Z,96.77
2023-02-11T23:53:54.721Z,93.40
2023-02-11T23:56:25.268Z,105.60
2023-02-11T23:58:55.562Z,103.03
